sensor_id;sensor_type;location;lat;lon;timestamp;P1;durP1;ratioP1;P2;durP2;ratioP2
55497;SDS011;41357;52.806;18.268;2023-07-22T00:01:10;6.03;;;2.85;;
55497;SDS011;41357;52.806;18.268;2023-07-22T00:03:36;3.72;;;1.70;;
55497;SDS011;41357;52.806;18.268;2023-07-22T00:06:05;5.55;;;1.80;;
55497;SDS011;41357;52.806;18.268;2023-07-22T00:08:35;3.40;;;1.50;;
55497;SDS011;41357;52.806;18.268;2023-07-22T00:11:02;6.93;;;2.53;;
55497;SDS011;41357;52.806;18.268;2023-07-22T00:13:28;2.50;;;1.80;;
55497;SDS011;41357;52.806;18.268;2023-07-22T00:15:54;3.13;;;2.00;;
55497;SDS011;41357;52.806;18.268;2023-07-22T00:18:21;4.70;;;1.92;;
55497;SDS011;41357;52.806;18.268;2023-07-22T00:20:47;2.47;;;1.52;;
55497;SDS011;41357;52.806;18.268;2023-07-22T00:23:13;2.83;;;1.83;;
55497;SDS011;41357;52.806;18.268;2023-07-22T00:25:40;5.57;;;1.90;;
55497;SDS011;41357;52.806;18.268;2023-07-22T00:28:06;5.32;;;2.10;;
55497;SDS011;41357;52.806;18.268;2023-07-22T00:30:33;6.15;;;2.10;;
55497;SDS011;41357;52.806;18.268;2023-07-22T00:33:00;4.82;;;2.30;;
55497;SDS011;41357;52.806;18.268;2023-07-22T00:35:26;4.75;;;2.20;;
55497;SDS011;41357;52.806;18.268;2023-07-22T00:37:52;4.10;;;1.90;;
55497;SDS011;41357;52.806;18.268;2023-07-22T00:40:18;5.00;;;2.00;;
55497;SDS011;41357;52.806;18.268;2023-07-22T00:42:45;4.70;;;2.00;;
55497;SDS011;41357;52.806;18.268;2023-07-22T00:45:11;4.88;;;1.80;;
55497;SDS011;41357;52.806;18.268;2023-07-22T00:47:37;3.97;;;1.92;;
55497;SDS011;41357;52.806;18.268;2023-07-22T00:50:04;2.45;;;1.50;;
55497;SDS011;41357;52.806;18.268;2023-07-22T00:52:32;2.13;;;1.52;;
55497;SDS011;41357;52.806;18.268;2023-07-22T00:54:58;3.33;;;1.70;;
55497;SDS011;41357;52.806;18.268;2023-07-22T00:57:25;3.28;;;2.10;;
55497;SDS011;41357;52.806;18.268;2023-07-22T00:59:51;6.63;;;2.15;;
55497;SDS011;41357;52.806;18.268;2023-07-22T01:02:18;5.68;;;2.30;;
55497;SDS011;41357;52.806;18.268;2023-07-22T01:04:44;5.68;;;2.85;;
55497;SDS011;41357;52.806;18.268;2023-07-22T01:07:10;5.88;;;2.95;;
55497;SDS011;41357;52.806;18.268;2023-07-22T01:09:37;5.40;;;2.10;;
55497;SDS011;41357;52.806;18.268;2023-07-22T01:12:03;4.38;;;2.05;;
55497;SDS011;41357;52.806;18.268;2023-07-22T01:14:34;6.93;;;2.30;;
55497;SDS011;41357;52.806;18.268;2023-07-22T01:17:04;6.43;;;2.20;;
55497;SDS011;41357;52.806;18.268;2023-07-22T01:19:30;2.90;;;2.13;;
55497;SDS011;41357;52.806;18.268;2023-07-22T01:22:00;3.95;;;2.17;;
55497;SDS011;41357;52.806;18.268;2023-07-22T01:24:29;3.08;;;2.00;;
55497;SDS011;41357;52.806;18.268;2023-07-22T01:26:56;4.57;;;2.40;;
55497;SDS011;41357;52.806;18.268;2023-07-22T01:29:22;4.22;;;2.20;;
55497;SDS011;41357;52.806;18.268;2023-07-22T01:31:50;4.97;;;1.98;;
55497;SDS011;41357;52.806;18.268;2023-07-22T01:34:17;3.88;;;2.15;;
55497;SDS011;41357;52.806;18.268;2023-07-22T01:36:44;6.72;;;2.55;;
55497;SDS011;41357;52.806;18.268;2023-07-22T01:39:10;3.95;;;1.90;;
55497;SDS011;41357;52.806;18.268;2023-07-22T01:41:37;3.83;;;1.92;;
55497;SDS011;41357;52.806;18.268;2023-07-22T01:44:03;3.45;;;2.05;;
55497;SDS011;41357;52.806;18.268;2023-07-22T01:46:29;4.22;;;2.35;;
55497;SDS011;41357;52.806;18.268;2023-07-22T01:48:55;3.33;;;2.10;;
55497;SDS011;41357;52.806;18.268;2023-07-22T01:51:22;5.70;;;1.95;;
55497;SDS011;41357;52.806;18.268;2023-07-22T01:53:48;4.53;;;1.85;;
55497;SDS011;41357;52.806;18.268;2023-07-22T01:56:14;4.18;;;2.38;;
55497;SDS011;41357;52.806;18.268;2023-07-22T01:58:45;4.40;;;2.13;;
55497;SDS011;41357;52.806;18.268;2023-07-22T02:01:11;3.63;;;1.63;;
55497;SDS011;41357;52.806;18.268;2023-07-22T02:03:44;4.35;;;2.13;;
55497;SDS011;41357;52.806;18.268;2023-07-22T02:06:11;3.88;;;2.28;;
55497;SDS011;41357;52.806;18.268;2023-07-22T02:08:37;3.28;;;1.77;;
55497;SDS011;41357;52.806;18.268;2023-07-22T02:11:04;4.00;;;1.75;;
55497;SDS011;41357;52.806;18.268;2023-07-22T02:13:31;5.05;;;2.03;;
55497;SDS011;41357;52.806;18.268;2023-07-22T02:15:58;4.68;;;2.05;;
55497;SDS011;41357;52.806;18.268;2023-07-22T02:18:24;7.43;;;2.40;;
55497;SDS011;41357;52.806;18.268;2023-07-22T02:20:50;4.47;;;2.22;;
55497;SDS011;41357;52.806;18.268;2023-07-22T02:23:17;4.88;;;2.25;;
55497;SDS011;41357;52.806;18.268;2023-07-22T02:25:43;4.05;;;2.30;;
55497;SDS011;41357;52.806;18.268;2023-07-22T02:28:09;4.22;;;2.03;;
55497;SDS011;41357;52.806;18.268;2023-07-22T02:30:36;4.07;;;2.25;;
55497;SDS011;41357;52.806;18.268;2023-07-22T02:33:04;3.53;;;1.80;;
55497;SDS011;41357;52.806;18.268;2023-07-22T02:35:30;3.42;;;2.42;;
55497;SDS011;41357;52.806;18.268;2023-07-22T02:37:56;4.05;;;2.08;;
55497;SDS011;41357;52.806;18.268;2023-07-22T02:40:22;4.43;;;2.55;;
55497;SDS011;41357;52.806;18.268;2023-07-22T02:42:48;3.85;;;2.30;;
55497;SDS011;41357;52.806;18.268;2023-07-22T02:45:14;3.75;;;2.38;;
55497;SDS011;41357;52.806;18.268;2023-07-22T02:47:41;4.82;;;2.28;;
55497;SDS011;41357;52.806;18.268;2023-07-22T02:50:07;5.63;;;2.65;;
55497;SDS011;41357;52.806;18.268;2023-07-22T02:52:34;5.78;;;2.22;;
55497;SDS011;41357;52.806;18.268;2023-07-22T02:57:30;4.20;;;2.45;;
55497;SDS011;41357;52.806;18.268;2023-07-22T02:59:56;3.40;;;2.05;;
55497;SDS011;41357;52.806;18.268;2023-07-22T03:02:22;3.33;;;2.17;;
55497;SDS011;41357;52.806;18.268;2023-07-22T03:04:48;4.38;;;2.35;;
55497;SDS011;41357;52.806;18.268;2023-07-22T03:07:15;3.72;;;2.40;;
55497;SDS011;41357;52.806;18.268;2023-07-22T03:09:41;5.15;;;2.33;;
55497;SDS011;41357;52.806;18.268;2023-07-22T03:12:07;3.83;;;2.72;;
55497;SDS011;41357;52.806;18.268;2023-07-22T03:14:33;4.85;;;2.40;;
55497;SDS011;41357;52.806;18.268;2023-07-22T03:17:02;4.63;;;2.25;;
55497;SDS011;41357;52.806;18.268;2023-07-22T03:19:31;5.78;;;2.40;;
55497;SDS011;41357;52.806;18.268;2023-07-22T03:21:57;3.95;;;2.28;;
55497;SDS011;41357;52.806;18.268;2023-07-22T03:24:23;3.85;;;2.55;;
55497;SDS011;41357;52.806;18.268;2023-07-22T03:26:50;4.70;;;2.50;;
55497;SDS011;41357;52.806;18.268;2023-07-22T03:29:16;4.30;;;2.30;;
55497;SDS011;41357;52.806;18.268;2023-07-22T03:31:42;6.85;;;2.45;;
55497;SDS011;41357;52.806;18.268;2023-07-22T03:34:09;4.03;;;2.20;;
55497;SDS011;41357;52.806;18.268;2023-07-22T03:36:35;4.30;;;2.38;;
55497;SDS011;41357;52.806;18.268;2023-07-22T03:39:02;4.32;;;2.10;;
55497;SDS011;41357;52.806;18.268;2023-07-22T03:41:28;4.40;;;2.55;;
55497;SDS011;41357;52.806;18.268;2023-07-22T03:43:54;3.40;;;2.20;;
55497;SDS011;41357;52.806;18.268;2023-07-22T03:46:20;5.60;;;3.03;;
55497;SDS011;41357;52.806;18.268;2023-07-22T03:48:46;6.05;;;2.42;;
55497;SDS011;41357;52.806;18.268;2023-07-22T03:51:12;4.55;;;2.90;;
55497;SDS011;41357;52.806;18.268;2023-07-22T03:53:38;5.60;;;3.50;;
55497;SDS011;41357;52.806;18.268;2023-07-22T03:56:04;6.90;;;3.60;;
55497;SDS011;41357;52.806;18.268;2023-07-22T03:58:31;7.53;;;3.78;;
55497;SDS011;41357;52.806;18.268;2023-07-22T04:00:57;6.60;;;3.50;;
55497;SDS011;41357;52.806;18.268;2023-07-22T04:03:23;7.13;;;3.72;;
55497;SDS011;41357;52.806;18.268;2023-07-22T04:05:54;6.60;;;3.38;;
55497;SDS011;41357;52.806;18.268;2023-07-22T04:08:20;10.05;;;4.07;;
55497;SDS011;41357;52.806;18.268;2023-07-22T04:10:53;6.50;;;2.80;;
55497;SDS011;41357;52.806;18.268;2023-07-22T04:13:19;6.30;;;2.97;;
55497;SDS011;41357;52.806;18.268;2023-07-22T04:15:46;7.30;;;2.90;;
55497;SDS011;41357;52.806;18.268;2023-07-22T04:18:14;4.00;;;2.85;;
55497;SDS011;41357;52.806;18.268;2023-07-22T04:20:40;7.05;;;3.33;;
55497;SDS011;41357;52.806;18.268;2023-07-22T04:23:06;4.30;;;2.63;;
55497;SDS011;41357;52.806;18.268;2023-07-22T04:25:32;3.65;;;2.47;;
55497;SDS011;41357;52.806;18.268;2023-07-22T04:27:59;4.38;;;2.72;;
55497;SDS011;41357;52.806;18.268;2023-07-22T04:30:25;7.47;;;3.55;;
55497;SDS011;41357;52.806;18.268;2023-07-22T04:32:51;6.43;;;3.40;;
55497;SDS011;41357;52.806;18.268;2023-07-22T04:35:17;4.97;;;2.92;;
55497;SDS011;41357;52.806;18.268;2023-07-22T04:37:43;6.65;;;3.00;;
55497;SDS011;41357;52.806;18.268;2023-07-22T04:40:13;5.30;;;3.33;;
55497;SDS011;41357;52.806;18.268;2023-07-22T04:42:40;5.88;;;2.83;;
55497;SDS011;41357;52.806;18.268;2023-07-22T04:45:07;8.95;;;3.25;;
55497;SDS011;41357;52.806;18.268;2023-07-22T04:47:35;9.13;;;3.45;;
55497;SDS011;41357;52.806;18.268;2023-07-22T04:50:02;6.70;;;3.03;;
55497;SDS011;41357;52.806;18.268;2023-07-22T04:52:29;8.43;;;3.50;;
55497;SDS011;41357;52.806;18.268;2023-07-22T04:54:55;6.57;;;3.72;;
55497;SDS011;41357;52.806;18.268;2023-07-22T04:57:21;8.20;;;3.65;;
55497;SDS011;41357;52.806;18.268;2023-07-22T04:59:47;4.97;;;3.10;;
55497;SDS011;41357;52.806;18.268;2023-07-22T05:02:13;11.02;;;3.33;;
55497;SDS011;41357;52.806;18.268;2023-07-22T05:04:40;6.03;;;2.80;;
55497;SDS011;41357;52.806;18.268;2023-07-22T05:07:06;6.55;;;3.50;;
55497;SDS011;41357;52.806;18.268;2023-07-22T05:09:32;5.25;;;2.85;;
55497;SDS011;41357;52.806;18.268;2023-07-22T05:11:58;4.40;;;2.63;;
55497;SDS011;41357;52.806;18.268;2023-07-22T05:14:24;5.25;;;2.92;;
55497;SDS011;41357;52.806;18.268;2023-07-22T05:16:50;4.13;;;2.95;;
55497;SDS011;41357;52.806;18.268;2023-07-22T05:19:16;6.13;;;3.10;;
55497;SDS011;41357;52.806;18.268;2023-07-22T05:21:44;5.18;;;3.50;;
55497;SDS011;41357;52.806;18.268;2023-07-22T05:24:10;5.35;;;2.92;;
55497;SDS011;41357;52.806;18.268;2023-07-22T05:26:36;3.78;;;2.80;;
55497;SDS011;41357;52.806;18.268;2023-07-22T05:29:02;4.90;;;2.83;;
55497;SDS011;41357;52.806;18.268;2023-07-22T05:31:28;7.50;;;3.13;;
55497;SDS011;41357;52.806;18.268;2023-07-22T05:33:54;6.10;;;3.05;;
55497;SDS011;41357;52.806;18.268;2023-07-22T05:36:20;6.10;;;4.75;;
55497;SDS011;41357;52.806;18.268;2023-07-22T05:38:47;8.18;;;5.20;;
55497;SDS011;41357;52.806;18.268;2023-07-22T05:41:13;8.73;;;3.90;;
55497;SDS011;41357;52.806;18.268;2023-07-22T05:43:39;6.45;;;3.67;;
55497;SDS011;41357;52.806;18.268;2023-07-22T05:46:05;5.60;;;3.53;;
55497;SDS011;41357;52.806;18.268;2023-07-22T05:48:31;5.20;;;3.22;;
55497;SDS011;41357;52.806;18.268;2023-07-22T05:50:57;9.18;;;4.10;;
55497;SDS011;41357;52.806;18.268;2023-07-22T05:53:23;6.25;;;4.40;;
55497;SDS011;41357;52.806;18.268;2023-07-22T05:55:50;4.78;;;3.38;;
55497;SDS011;41357;52.806;18.268;2023-07-22T05:58:16;5.30;;;3.42;;
55497;SDS011;41357;52.806;18.268;2023-07-22T06:00:43;5.25;;;3.15;;
55497;SDS011;41357;52.806;18.268;2023-07-22T06:03:09;5.72;;;3.08;;
55497;SDS011;41357;52.806;18.268;2023-07-22T06:05:35;5.70;;;3.15;;
55497;SDS011;41357;52.806;18.268;2023-07-22T06:08:01;5.55;;;2.67;;
55497;SDS011;41357;52.806;18.268;2023-07-22T06:10:28;3.65;;;2.33;;
55497;SDS011;41357;52.806;18.268;2023-07-22T06:12:55;2.42;;;2.05;;
55497;SDS011;41357;52.806;18.268;2023-07-22T06:15:21;3.75;;;1.92;;
55497;SDS011;41357;52.806;18.268;2023-07-22T06:17:48;3.88;;;1.77;;
55497;SDS011;41357;52.806;18.268;2023-07-22T06:20:14;3.85;;;1.88;;
55497;SDS011;41357;52.806;18.268;2023-07-22T06:22:40;5.90;;;2.03;;
55497;SDS011;41357;52.806;18.268;2023-07-22T06:25:07;6.10;;;2.42;;
55497;SDS011;41357;52.806;18.268;2023-07-22T06:27:33;3.90;;;1.80;;
55497;SDS011;41357;52.806;18.268;2023-07-22T06:30:00;4.57;;;1.88;;
55497;SDS011;41357;52.806;18.268;2023-07-22T06:32:26;3.20;;;2.05;;
55497;SDS011;41357;52.806;18.268;2023-07-22T06:34:55;2.80;;;2.20;;
55497;SDS011;41357;52.806;18.268;2023-07-22T06:37:22;2.50;;;2.00;;
55497;SDS011;41357;52.806;18.268;2023-07-22T06:39:49;5.03;;;2.30;;
55497;SDS011;41357;52.806;18.268;2023-07-22T06:42:15;4.60;;;2.15;;
55497;SDS011;41357;52.806;18.268;2023-07-22T06:44:42;2.33;;;1.92;;
55497;SDS011;41357;52.806;18.268;2023-07-22T06:47:09;4.20;;;1.95;;
55497;SDS011;41357;52.806;18.268;2023-07-22T06:49:35;2.70;;;2.25;;
55497;SDS011;41357;52.806;18.268;2023-07-22T06:52:02;4.63;;;2.30;;
55497;SDS011;41357;52.806;18.268;2023-07-22T06:54:28;4.65;;;2.03;;
55497;SDS011;41357;52.806;18.268;2023-07-22T06:56:54;4.70;;;2.25;;
55497;SDS011;41357;52.806;18.268;2023-07-22T06:59:20;6.63;;;3.00;;
55497;SDS011;41357;52.806;18.268;2023-07-22T07:01:46;2.83;;;2.22;;
55497;SDS011;41357;52.806;18.268;2023-07-22T07:04:13;3.10;;;2.30;;
55497;SDS011;41357;52.806;18.268;2023-07-22T07:06:39;3.08;;;2.25;;
55497;SDS011;41357;52.806;18.268;2023-07-22T07:09:05;4.63;;;2.72;;
55497;SDS011;41357;52.806;18.268;2023-07-22T07:11:31;4.22;;;2.53;;
55497;SDS011;41357;52.806;18.268;2023-07-22T07:13:57;3.42;;;2.55;;
55497;SDS011;41357;52.806;18.268;2023-07-22T07:16:25;5.38;;;2.25;;
55497;SDS011;41357;52.806;18.268;2023-07-22T07:18:52;4.05;;;2.00;;
55497;SDS011;41357;52.806;18.268;2023-07-22T07:21:18;3.92;;;1.80;;
55497;SDS011;41357;52.806;18.268;2023-07-22T07:23:45;2.35;;;1.63;;
55497;SDS011;41357;52.806;18.268;2023-07-22T07:26:11;2.22;;;1.67;;
55497;SDS011;41357;52.806;18.268;2023-07-22T07:28:37;4.13;;;2.00;;
55497;SDS011;41357;52.806;18.268;2023-07-22T07:31:03;3.55;;;2.25;;
55497;SDS011;41357;52.806;18.268;2023-07-22T07:33:30;3.08;;;1.52;;
55497;SDS011;41357;52.806;18.268;2023-07-22T07:35:56;6.15;;;2.10;;
55497;SDS011;41357;52.806;18.268;2023-07-22T07:38:22;4.25;;;2.05;;
55497;SDS011;41357;52.806;18.268;2023-07-22T07:40:58;2.00;;;1.70;;
55497;SDS011;41357;52.806;18.268;2023-07-22T07:43:25;2.80;;;1.60;;
55497;SDS011;41357;52.806;18.268;2023-07-22T07:46:11;2.10;;;1.50;;
55497;SDS011;41357;52.806;18.268;2023-07-22T07:48:38;2.00;;;1.40;;
55497;SDS011;41357;52.806;18.268;2023-07-22T07:51:04;3.72;;;1.20;;
55497;SDS011;41357;52.806;18.268;2023-07-22T07:53:30;1.90;;;1.45;;
55497;SDS011;41357;52.806;18.268;2023-07-22T07:55:56;2.28;;;1.52;;
55497;SDS011;41357;52.806;18.268;2023-07-22T07:58:22;3.20;;;2.00;;
55497;SDS011;41357;52.806;18.268;2023-07-22T08:00:48;2.78;;;1.52;;
55497;SDS011;41357;52.806;18.268;2023-07-22T08:03:14;3.33;;;1.42;;
55497;SDS011;41357;52.806;18.268;2023-07-22T08:05:41;2.28;;;1.15;;
55497;SDS011;41357;52.806;18.268;2023-07-22T08:08:07;1.85;;;1.00;;
55497;SDS011;41357;52.806;18.268;2023-07-22T08:10:33;1.48;;;1.10;;
55497;SDS011;41357;52.806;18.268;2023-07-22T08:12:59;2.00;;;1.17;;
55497;SDS011;41357;52.806;18.268;2023-07-22T08:15:25;4.40;;;1.10;;
55497;SDS011;41357;52.806;18.268;2023-07-22T08:17:53;1.98;;;1.10;;
55497;SDS011;41357;52.806;18.268;2023-07-22T08:20:19;2.95;;;1.27;;
55497;SDS011;41357;52.806;18.268;2023-07-22T08:22:46;1.25;;;0.98;;
55497;SDS011;41357;52.806;18.268;2023-07-22T08:25:12;3.65;;;1.13;;
55497;SDS011;41357;52.806;18.268;2023-07-22T08:27:38;2.13;;;1.00;;
55497;SDS011;41357;52.806;18.268;2023-07-22T08:30:04;1.55;;;1.00;;
55497;SDS011;41357;52.806;18.268;2023-07-22T08:32:31;2.13;;;1.17;;
55497;SDS011;41357;52.806;18.268;2023-07-22T08:34:57;3.60;;;1.20;;
55497;SDS011;41357;52.806;18.268;2023-07-22T08:37:23;1.98;;;1.42;;
55497;SDS011;41357;52.806;18.268;2023-07-22T08:39:49;1.77;;;1.33;;
55497;SDS011;41357;52.806;18.268;2023-07-22T08:42:15;1.40;;;1.17;;
55497;SDS011;41357;52.806;18.268;2023-07-22T08:44:44;2.25;;;1.50;;
55497;SDS011;41357;52.806;18.268;2023-07-22T08:47:14;4.05;;;1.50;;
55497;SDS011;41357;52.806;18.268;2023-07-22T08:49:45;1.35;;;1.00;;
55497;SDS011;41357;52.806;18.268;2023-07-22T08:52:12;2.97;;;1.30;;
55497;SDS011;41357;52.806;18.268;2023-07-22T08:54:40;1.85;;;1.40;;
55497;SDS011;41357;52.806;18.268;2023-07-22T08:57:07;1.45;;;1.20;;
55497;SDS011;41357;52.806;18.268;2023-07-22T08:59:34;1.75;;;1.25;;
55497;SDS011;41357;52.806;18.268;2023-07-22T09:02:01;1.77;;;1.10;;
55497;SDS011;41357;52.806;18.268;2023-07-22T09:04:27;1.48;;;1.27;;
55497;SDS011;41357;52.806;18.268;2023-07-22T09:06:54;2.00;;;1.20;;
55497;SDS011;41357;52.806;18.268;2023-07-22T09:09:21;2.92;;;1.30;;
55497;SDS011;41357;52.806;18.268;2023-07-22T09:11:48;2.42;;;1.40;;
55497;SDS011;41357;52.806;18.268;2023-07-22T09:14:15;2.53;;;1.50;;
55497;SDS011;41357;52.806;18.268;2023-07-22T09:16:43;2.58;;;1.60;;
55497;SDS011;41357;52.806;18.268;2023-07-22T09:19:09;2.58;;;1.60;;
55497;SDS011;41357;52.806;18.268;2023-07-22T09:21:35;2.63;;;1.70;;
55497;SDS011;41357;52.806;18.268;2023-07-22T09:24:01;2.47;;;1.70;;
55497;SDS011;41357;52.806;18.268;2023-07-22T09:26:28;2.80;;;1.85;;
55497;SDS011;41357;52.806;18.268;2023-07-22T09:31:25;3.25;;;1.83;;
55497;SDS011;41357;52.806;18.268;2023-07-22T09:33:52;7.45;;;2.30;;
55497;SDS011;41357;52.806;18.268;2023-07-22T09:36:21;3.57;;;2.00;;
55497;SDS011;41357;52.806;18.268;2023-07-22T09:39:20;3.15;;;1.80;;
55497;SDS011;41357;52.806;18.268;2023-07-22T09:41:41;4.43;;;1.92;;
55497;SDS011;41357;52.806;18.268;2023-07-22T09:44:09;2.67;;;1.70;;
55497;SDS011;41357;52.806;18.268;2023-07-22T09:46:37;6.17;;;1.97;;
55497;SDS011;41357;52.806;18.268;2023-07-22T09:49:04;5.03;;;2.10;;
55497;SDS011;41357;52.806;18.268;2023-07-22T09:51:36;4.00;;;1.60;;
55497;SDS011;41357;52.806;18.268;2023-07-22T09:54:03;3.50;;;1.88;;
55497;SDS011;41357;52.806;18.268;2023-07-22T09:56:30;2.63;;;2.00;;
55497;SDS011;41357;52.806;18.268;2023-07-22T09:58:58;2.85;;;2.10;;
55497;SDS011;41357;52.806;18.268;2023-07-22T10:01:25;2.95;;;2.15;;
55497;SDS011;41357;52.806;18.268;2023-07-22T10:03:54;4.00;;;2.50;;
55497;SDS011;41357;52.806;18.268;2023-07-22T10:06:28;3.38;;;2.00;;
55497;SDS011;41357;52.806;18.268;2023-07-22T10:08:55;2.35;;;1.90;;
55497;SDS011;41357;52.806;18.268;2023-07-22T10:11:25;4.90;;;2.90;;
55497;SDS011;41357;52.806;18.268;2023-07-22T10:13:53;5.03;;;2.75;;
55497;SDS011;41357;52.806;18.268;2023-07-22T10:16:19;4.13;;;2.70;;
55497;SDS011;41357;52.806;18.268;2023-07-22T10:18:46;3.88;;;2.90;;
55497;SDS011;41357;52.806;18.268;2023-07-22T10:21:13;5.13;;;2.95;;
55497;SDS011;41357;52.806;18.268;2023-07-22T10:23:39;5.57;;;3.20;;
55497;SDS011;41357;52.806;18.268;2023-07-22T10:26:06;7.10;;;3.42;;
55497;SDS011;41357;52.806;18.268;2023-07-22T10:28:33;5.18;;;3.13;;
55497;SDS011;41357;52.806;18.268;2023-07-22T10:30:59;10.02;;;3.72;;
55497;SDS011;41357;52.806;18.268;2023-07-22T10:33:25;10.98;;;3.85;;
55497;SDS011;41357;52.806;18.268;2023-07-22T10:36:02;5.28;;;3.70;;
55497;SDS011;41357;52.806;18.268;2023-07-22T10:38:29;5.70;;;3.65;;
55497;SDS011;41357;52.806;18.268;2023-07-22T10:40:56;5.15;;;3.92;;
55497;SDS011;41357;52.806;18.268;2023-07-22T10:43:32;7.15;;;3.22;;
55497;SDS011;41357;52.806;18.268;2023-07-22T10:46:05;4.55;;;2.63;;
55497;SDS011;41357;52.806;18.268;2023-07-22T10:48:36;4.45;;;2.58;;
55497;SDS011;41357;52.806;18.268;2023-07-22T10:51:07;7.53;;;3.05;;
55497;SDS011;41357;52.806;18.268;2023-07-22T10:53:38;3.70;;;2.97;;
55497;SDS011;41357;52.806;18.268;2023-07-22T10:58:33;5.03;;;2.60;;
55497;SDS011;41357;52.806;18.268;2023-07-22T11:01:33;4.03;;;2.25;;
55497;SDS011;41357;52.806;18.268;2023-07-22T11:06:57;3.58;;;2.40;;
55497;SDS011;41357;52.806;18.268;2023-07-22T11:12:02;4.53;;;1.92;;
55497;SDS011;41357;52.806;18.268;2023-07-22T11:15:12;4.80;;;2.38;;
55497;SDS011;41357;52.806;18.268;2023-07-22T11:17:27;2.22;;;1.80;;
55497;SDS011;41357;52.806;18.268;2023-07-22T11:19:55;5.10;;;1.90;;
55497;SDS011;41357;52.806;18.268;2023-07-22T11:22:21;3.70;;;2.15;;
55497;SDS011;41357;52.806;18.268;2023-07-22T11:24:47;3.22;;;1.83;;
55497;SDS011;41357;52.806;18.268;2023-07-22T11:27:13;2.00;;;1.73;;
55497;SDS011;41357;52.806;18.268;2023-07-22T11:29:40;3.15;;;1.90;;
55497;SDS011;41357;52.806;18.268;2023-07-22T11:32:06;3.38;;;2.10;;
55497;SDS011;41357;52.806;18.268;2023-07-22T11:34:32;2.38;;;1.90;;
55497;SDS011;41357;52.806;18.268;2023-07-22T11:36:59;2.88;;;1.80;;
55497;SDS011;41357;52.806;18.268;2023-07-22T11:39:26;4.53;;;1.90;;
55497;SDS011;41357;52.806;18.268;2023-07-22T11:41:56;2.92;;;1.67;;
55497;SDS011;41357;52.806;18.268;2023-07-22T11:44:26;3.60;;;2.00;;
55497;SDS011;41357;52.806;18.268;2023-07-22T11:49:29;6.63;;;1.95;;
55497;SDS011;41357;52.806;18.268;2023-07-22T11:51:56;10.73;;;1.65;;
55497;SDS011;41357;52.806;18.268;2023-07-22T11:54:23;2.08;;;1.63;;
55497;SDS011;41357;52.806;18.268;2023-07-22T11:56:49;5.50;;;1.70;;
55497;SDS011;41357;52.806;18.268;2023-07-22T11:59:15;2.10;;;1.58;;
55497;SDS011;41357;52.806;18.268;2023-07-22T12:01:44;4.13;;;1.80;;
55497;SDS011;41357;52.806;18.268;2023-07-22T12:04:14;3.20;;;2.03;;
55497;SDS011;41357;52.806;18.268;2023-07-22T12:06:40;2.10;;;1.65;;
55497;SDS011;41357;52.806;18.268;2023-07-22T12:09:07;2.40;;;1.40;;
55497;SDS011;41357;52.806;18.268;2023-07-22T12:11:37;3.35;;;1.73;;
55497;SDS011;41357;52.806;18.268;2023-07-22T12:14:07;2.95;;;1.77;;
55497;SDS011;41357;52.806;18.268;2023-07-22T12:16:35;4.45;;;1.92;;
55497;SDS011;41357;52.806;18.268;2023-07-22T12:19:02;2.08;;;1.35;;
55497;SDS011;41357;52.806;18.268;2023-07-22T12:21:28;2.20;;;1.58;;
55497;SDS011;41357;52.806;18.268;2023-07-22T12:23:54;3.03;;;1.50;;
55497;SDS011;41357;52.806;18.268;2023-07-22T12:26:21;2.47;;;1.58;;
55497;SDS011;41357;52.806;18.268;2023-07-22T12:28:47;1.73;;;1.40;;
55497;SDS011;41357;52.806;18.268;2023-07-22T12:31:13;2.47;;;1.30;;
55497;SDS011;41357;52.806;18.268;2023-07-22T12:33:39;3.00;;;1.45;;
55497;SDS011;41357;52.806;18.268;2023-07-22T12:36:05;2.00;;;1.60;;
55497;SDS011;41357;52.806;18.268;2023-07-22T12:38:31;2.50;;;1.38;;
55497;SDS011;41357;52.806;18.268;2023-07-22T12:40:58;2.17;;;1.38;;
55497;SDS011;41357;52.806;18.268;2023-07-22T12:43:24;3.40;;;1.90;;
55497;SDS011;41357;52.806;18.268;2023-07-22T12:45:50;1.70;;;1.30;;
55497;SDS011;41357;52.806;18.268;2023-07-22T12:48:16;2.53;;;1.55;;
55497;SDS011;41357;52.806;18.268;2023-07-22T12:50:43;2.97;;;1.48;;
55497;SDS011;41357;52.806;18.268;2023-07-22T12:53:09;2.08;;;1.45;;
55497;SDS011;41357;52.806;18.268;2023-07-22T12:55:36;2.22;;;1.55;;
55497;SDS011;41357;52.806;18.268;2023-07-22T12:58:02;2.30;;;1.58;;
55497;SDS011;41357;52.806;18.268;2023-07-22T13:00:28;6.28;;;1.70;;
55497;SDS011;41357;52.806;18.268;2023-07-22T13:02:54;5.88;;;1.67;;
55497;SDS011;41357;52.806;18.268;2023-07-22T13:05:22;3.25;;;1.33;;
55497;SDS011;41357;52.806;18.268;2023-07-22T13:07:48;4.53;;;1.50;;
55497;SDS011;41357;52.806;18.268;2023-07-22T13:10:14;1.55;;;1.23;;
55497;SDS011;41357;52.806;18.268;2023-07-22T13:12:43;2.50;;;1.80;;
55497;SDS011;41357;52.806;18.268;2023-07-22T13:15:09;2.38;;;1.70;;
55497;SDS011;41357;52.806;18.268;2023-07-22T13:17:36;7.20;;;1.63;;
55497;SDS011;41357;52.806;18.268;2023-07-22T13:20:05;3.35;;;1.63;;
55497;SDS011;41357;52.806;18.268;2023-07-22T13:22:36;2.67;;;1.70;;
55497;SDS011;41357;52.806;18.268;2023-07-22T13:25:03;3.90;;;1.88;;
55497;SDS011;41357;52.806;18.268;2023-07-22T13:27:29;5.10;;;1.90;;
55497;SDS011;41357;52.806;18.268;2023-07-22T13:29:55;7.53;;;2.15;;
55497;SDS011;41357;52.806;18.268;2023-07-22T13:32:22;7.47;;;3.70;;
55497;SDS011;41357;52.806;18.268;2023-07-22T13:34:48;4.10;;;3.30;;
55497;SDS011;41357;52.806;18.268;2023-07-22T13:37:14;14.23;;;6.15;;
55497;SDS011;41357;52.806;18.268;2023-07-22T13:39:41;11.75;;;8.60;;
55497;SDS011;41357;52.806;18.268;2023-07-22T13:42:07;9.45;;;7.18;;
55497;SDS011;41357;52.806;18.268;2023-07-22T13:44:36;8.17;;;5.63;;
55497;SDS011;41357;52.806;18.268;2023-07-22T13:47:03;4.15;;;2.72;;
55497;SDS011;41357;52.806;18.268;2023-07-22T13:49:29;3.38;;;2.15;;
55497;SDS011;41357;52.806;18.268;2023-07-22T13:51:55;2.70;;;1.77;;
55497;SDS011;41357;52.806;18.268;2023-07-22T13:54:21;2.33;;;1.58;;
55497;SDS011;41357;52.806;18.268;2023-07-22T13:56:48;3.60;;;1.60;;
55497;SDS011;41357;52.806;18.268;2023-07-22T13:59:14;3.28;;;2.10;;
55497;SDS011;41357;52.806;18.268;2023-07-22T14:01:40;3.17;;;1.90;;
55497;SDS011;41357;52.806;18.268;2023-07-22T14:04:06;4.93;;;1.60;;
55497;SDS011;41357;52.806;18.268;2023-07-22T14:06:32;2.72;;;1.95;;
55497;SDS011;41357;52.806;18.268;2023-07-22T14:08:58;2.85;;;1.73;;
55497;SDS011;41357;52.806;18.268;2023-07-22T14:11:25;6.60;;;1.95;;
55497;SDS011;41357;52.806;18.268;2023-07-22T14:13:51;2.92;;;1.83;;
55497;SDS011;41357;52.806;18.268;2023-07-22T14:16:18;2.80;;;1.92;;
55497;SDS011;41357;52.806;18.268;2023-07-22T14:18:44;5.20;;;1.90;;
55497;SDS011;41357;52.806;18.268;2023-07-22T14:21:10;3.13;;;2.00;;
55497;SDS011;41357;52.806;18.268;2023-07-22T14:23:37;3.22;;;1.88;;
55497;SDS011;41357;52.806;18.268;2023-07-22T14:26:03;2.53;;;1.75;;
55497;SDS011;41357;52.806;18.268;2023-07-22T14:28:29;3.33;;;1.77;;
55497;SDS011;41357;52.806;18.268;2023-07-22T14:30:55;2.67;;;1.55;;
55497;SDS011;41357;52.806;18.268;2023-07-22T14:33:21;3.40;;;1.67;;
55497;SDS011;41357;52.806;18.268;2023-07-22T14:35:47;3.25;;;1.83;;
55497;SDS011;41357;52.806;18.268;2023-07-22T14:38:13;6.50;;;1.73;;
55497;SDS011;41357;52.806;18.268;2023-07-22T14:40:40;2.40;;;1.70;;
55497;SDS011;41357;52.806;18.268;2023-07-22T14:43:06;4.53;;;1.63;;
55497;SDS011;41357;52.806;18.268;2023-07-22T14:45:32;4.28;;;1.65;;
55497;SDS011;41357;52.806;18.268;2023-07-22T14:47:58;2.97;;;1.88;;